Time;durP1;ratioP1;P1;durP2;ratioP2;P2;SDS_P1;SDS_P2;PMS_P1;PMS_P2;Temp;Humidity;BMP_temperature;BMP_pressure;BME280_temperature;BME280_humidity;BME280_pressure;Samples;Min_cycle;Max_cycle;Signal;HPM_P1;HPM_P2
2022/07/18 00:02:15;;;;;;;8.00;6.70;;;;;;;;;;5044004;28;20090;-64
2022/07/18 00:04:41;;;;;;;7.30;6.43;;;;;;;;;;5046651;28;20032;-65
2022/07/18 00:07:07;;;;;;;7.55;6.80;;;;;;;;;;5048320;28;20044;-65
2022/07/18 00:09:32;;;;;;;7.05;6.53;;;;;;;;;;5044081;28;20037;-64
2022/07/18 00:11:58;;;;;;;7.38;6.78;;;;;;;;;;5044816;28;20534;-65
2022/07/18 00:14:23;;;;;;;7.28;6.78;;;;;;;;;;5044465;28;20029;-65
2022/07/18 00:16:49;;;;;;;7.75;7.00;;;;;;;;;;5048592;28;20032;-64
2022/07/18 00:19:16;;;;;;;7.85;7.10;;;;;;;;;;5046648;28;20099;-65
2022/07/18 00:21:42;;;;;;;7.55;6.82;;;;;;;;;;5045366;28;20032;-65
2022/07/18 00:24:08;;;;;;;7.88;7.18;;;;;;;;;;5043516;28;21619;-66
2022/07/18 00:26:34;;;;;;;7.32;6.75;;;;;;;;;;5048064;28;20039;-64
2022/07/18 00:29:00;;;;;;;7.45;6.85;;;;;;;;;;5041884;28;20041;-65
2022/07/18 00:31:26;;;;;;;8.00;6.72;;;;;;;;;;5045500;28;20045;-65
2022/07/18 00:33:51;;;;;;;7.53;6.88;;;;;;;;;;5047891;28;20029;-65
2022/07/18 00:36:17;;;;;;;7.68;6.88;;;;;;;;;;5042856;28;20075;-64
2022/07/18 00:38:42;;;;;;;7.68;7.00;;;;;;;;;;5046192;28;20467;-65
2022/07/18 00:41:08;;;;;;;7.32;6.72;;;;;;;;;;5046680;28;20480;-64
2022/07/18 00:43:33;;;;;;;7.28;6.43;;;;;;;;;;5045880;28;20048;-64
2022/07/18 00:45:59;;;;;;;6.60;6.10;;;;;;;;;;5046068;28;20037;-65
2022/07/18 00:48:25;;;;;;;7.03;6.50;;;;;;;;;;5031524;28;20039;-65
2022/07/18 00:50:50;;;;;;;6.85;6.32;;;;;;;;;;5039432;28;20632;-64
2022/07/18 00:53:16;;;;;;;7.00;6.30;;;;;;;;;;5048218;28;20123;-65
2022/07/18 00:55:46;;;;;;;7.25;6.57;;;;;;;;;;5043303;28;20036;-62
2022/07/18 00:58:12;;;;;;;7.22;6.55;;;;;;;;;;5046934;28;20511;-64
2022/07/18 01:03:23;;;;;;;9.88;6.50;;;;;;;;;;5045460;28;20037;-64
2022/07/18 01:05:48;;;;;;;7.25;6.65;;;;;;;;;;5039187;28;20392;-65
2022/07/18 01:08:14;;;;;;;7.07;6.55;;;;;;;;;;5044617;28;20392;-65
2022/07/18 01:10:40;;;;;;;8.68;6.60;;;;;;;;;;5043942;28;20072;-63
2022/07/18 01:13:05;;;;;;;6.85;6.45;;;;;;;;;;5043478;28;20199;-65
2022/07/18 01:15:31;;;;;;;7.22;6.60;;;;;;;;;;5047305;28;20404;-63
2022/07/18 01:17:56;;;;;;;7.28;6.20;;;;;;;;;;5041567;28;20036;-65
2022/07/18 01:20:27;;;;;;;7.38;6.60;;;;;;;;;;5041786;28;20214;-63
2022/07/18 01:22:53;;;;;;;7.03;6.45;;;;;;;;;;5046577;28;20041;-63
2022/07/18 01:25:18;;;;;;;7.30;6.60;;;;;;;;;;5046016;28;20163;-64
2022/07/18 01:27:44;;;;;;;7.18;6.57;;;;;;;;;;5044974;28;20038;-66
2022/07/18 01:30:10;;;;;;;6.85;6.28;;;;;;;;;;5045574;28;20037;-65
2022/07/18 01:32:36;;;;;;;7.20;6.50;;;;;;;;;;5044398;28;20028;-62
2022/07/18 01:35:03;;;;;;;6.93;6.32;;;;;;;;;;5047068;28;20041;-64
2022/07/18 01:37:28;;;;;;;7.82;7.22;;;;;;;;;;5044060;28;20033;-63
2022/07/18 01:39:54;;;;;;;7.40;6.80;;;;;;;;;;5043993;28;20399;-66
2022/07/18 01:42:19;;;;;;;7.22;6.53;;;;;;;;;;5046769;28;20037;-65
2022/07/18 01:44:45;;;;;;;8.60;6.60;;;;;;;;;;5046392;28;20029;-66
2022/07/18 01:47:11;;;;;;;7.45;6.75;;;;;;;;;;5039637;28;20061;-63
2022/07/18 01:49:38;;;;;;;7.10;6.60;;;;;;;;;;5042009;28;20377;-63
2022/07/18 01:52:05;;;;;;;7.15;6.55;;;;;;;;;;5041307;28;20045;-64
2022/07/18 01:54:33;;;;;;;7.32;6.72;;;;;;;;;;5038073;28;20036;-65
2022/07/18 01:57:01;;;;;;;7.18;6.43;;;;;;;;;;5043297;28;20056;-64
2022/07/18 01:59:27;;;;;;;6.90;6.38;;;;;;;;;;5037476;28;20033;-64
2022/07/18 02:01:53;;;;;;;6.88;6.38;;;;;;;;;;5047467;28;20036;-64
2022/07/18 02:04:18;;;;;;;7.45;6.75;;;;;;;;;;5041094;28;20029;-64
2022/07/18 02:06:44;;;;;;;7.90;7.10;;;;;;;;;;5040900;28;20492;-64
2022/07/18 02:09:10;;;;;;;7.70;7.10;;;;;;;;;;5041716;28;20037;-63
2022/07/18 02:11:37;;;;;;;7.57;6.90;;;;;;;;;;5048187;28;20658;-64
2022/07/18 02:14:04;;;;;;;7.50;6.63;;;;;;;;;;5043196;28;20631;-65
2022/07/18 02:16:30;;;;;;;7.40;6.70;;;;;;;;;;5046467;28;20037;-66
2022/07/18 02:18:57;;;;;;;7.65;6.38;;;;;;;;;;5048430;28;20056;-65
2022/07/18 02:21:23;;;;;;;7.10;6.50;;;;;;;;;;5051835;28;20440;-63
2022/07/18 02:23:50;;;;;;;7.45;6.85;;;;;;;;;;5049233;28;20033;-63
2022/07/18 02:26:17;;;;;;;7.10;6.60;;;;;;;;;;5052459;28;20025;-63
2022/07/18 02:28:42;;;;;;;7.97;7.18;;;;;;;;;;5047377;28;20029;-63
2022/07/18 02:31:08;;;;;;;8.02;6.95;;;;;;;;;;5051954;28;20043;-65
2022/07/18 02:33:34;;;;;;;7.05;6.53;;;;;;;;;;5050238;28;20032;-62
2022/07/18 02:36:00;;;;;;;6.93;6.43;;;;;;;;;;5050859;28;20068;-63
2022/07/18 02:38:25;;;;;;;7.25;6.75;;;;;;;;;;5049680;28;20119;-62
2022/07/18 02:40:51;;;;;;;7.82;7.07;;;;;;;;;;5047150;28;20587;-63
2022/07/18 02:43:17;;;;;;;7.40;6.80;;;;;;;;;;5051787;28;20041;-63
2022/07/18 02:45:42;;;;;;;7.55;6.95;;;;;;;;;;5036132;28;20252;-62
2022/07/18 02:48:08;;;;;;;7.25;6.75;;;;;;;;;;5051492;28;20069;-62
2022/07/18 02:50:34;;;;;;;7.65;7.05;;;;;;;;;;5046646;28;20442;-63
2022/07/18 02:53:00;;;;;;;7.75;7.10;;;;;;;;;;5050786;28;20500;-66
2022/07/18 02:55:25;;;;;;;7.53;6.88;;;;;;;;;;5045208;28;20530;-65
2022/07/18 02:57:51;;;;;;;7.50;6.90;;;;;;;;;;5049872;28;20422;-64
2022/07/18 03:00:17;;;;;;;7.70;7.10;;;;;;;;;;5048638;28;20044;-63
2022/07/18 03:02:46;;;;;;;7.78;7.07;;;;;;;;;;5046512;28;20041;-63
2022/07/18 03:05:12;;;;;;;7.93;7.10;;;;;;;;;;5036768;28;20115;-66
2022/07/18 03:07:38;;;;;;;7.35;6.85;;;;;;;;;;5045099;28;20255;-64
2022/07/18 03:10:05;;;;;;;7.93;7.25;;;;;;;;;;5048495;28;20098;-64
2022/07/18 03:12:31;;;;;;;7.75;7.05;;;;;;;;;;5050092;28;20039;-62
2022/07/18 03:14:57;;;;;;;7.65;7.05;;;;;;;;;;5047367;28;20435;-62
2022/07/18 03:17:22;;;;;;;8.00;7.20;;;;;;;;;;5047838;28;20025;-63
2022/07/18 03:19:48;;;;;;;7.60;7.00;;;;;;;;;;5044963;28;20035;-63
2022/07/18 03:22:13;;;;;;;7.93;7.20;;;;;;;;;;5043432;28;20119;-66
2022/07/18 03:24:39;;;;;;;7.40;6.80;;;;;;;;;;5047424;28;20399;-65
2022/07/18 03:27:05;;;;;;;8.95;7.20;;;;;;;;;;5051360;28;20043;-65
2022/07/18 03:29:30;;;;;;;8.10;7.40;;;;;;;;;;5050872;28;20043;-65
2022/07/18 03:31:56;;;;;;;7.93;7.32;;;;;;;;;;5045968;28;20028;-64
2022/07/18 03:34:21;;;;;;;8.20;7.25;;;;;;;;;;5048637;28;20064;-64
2022/07/18 03:36:47;;;;;;;7.70;7.10;;;;;;;;;;5041224;28;20041;-65
2022/07/18 03:39:13;;;;;;;7.70;7.00;;;;;;;;;;5045876;28;20040;-66
2022/07/18 03:41:39;;;;;;;7.82;7.10;;;;;;;;;;5042862;28;20036;-65
2022/07/18 03:44:05;;;;;;;7.97;7.38;;;;;;;;;;5046410;28;20397;-65
2022/07/18 03:46:32;;;;;;;7.60;7.10;;;;;;;;;;5046038;28;20036;-65
2022/07/18 03:48:58;;;;;;;7.82;7.10;;;;;;;;;;5049628;28;20036;-67
2022/07/18 03:51:24;;;;;;;7.80;7.07;;;;;;;;;;5046961;28;20044;-64
2022/07/18 03:53:50;;;;;;;8.00;7.40;;;;;;;;;;5046325;28;20086;-63
2022/07/18 03:56:16;;;;;;;8.43;7.72;;;;;;;;;;5048083;28;20112;-64
2022/07/18 03:58:42;;;;;;;7.82;7.22;;;;;;;;;;5047238;28;20017;-63
2022/07/18 04:01:09;;;;;;;8.07;7.35;;;;;;;;;;5042163;28;20036;-64
2022/07/18 04:03:35;;;;;;;7.85;7.10;;;;;;;;;;5040865;28;20031;-63
2022/07/18 04:06:00;;;;;;;9.90;7.53;;;;;;;;;;5042097;28;20037;-64
2022/07/18 04:08:26;;;;;;;8.35;7.53;;;;;;;;;;5035306;28;20033;-64
2022/07/18 04:10:52;;;;;;;7.60;6.90;;;;;;;;;;5040664;28;20040;-64
2022/07/18 04:13:17;;;;;;;7.72;7.03;;;;;;;;;;5038620;28;20191;-63
2022/07/18 04:15:43;;;;;;;7.55;6.95;;;;;;;;;;5046966;28;20056;-63
2022/07/18 04:18:09;;;;;;;7.75;7.13;;;;;;;;;;5041134;28;20044;-65
2022/07/18 04:20:36;;;;;;;7.82;7.13;;;;;;;;;;5042362;28;20060;-63
2022/07/18 04:23:04;;;;;;;7.60;7.00;;;;;;;;;;5036827;28;20065;-63
2022/07/18 04:25:35;;;;;;;7.82;7.22;;;;;;;;;;5046118;28;20112;-63
2022/07/18 04:28:01;;;;;;;7.93;7.22;;;;;;;;;;5040770;28;20074;-64
2022/07/18 04:30:28;;;;;;;7.93;7.10;;;;;;;;;;5042126;28;20170;-65
2022/07/18 04:32:54;;;;;;;9.68;7.70;;;;;;;;;;5046964;28;20082;-64
2022/07/18 04:35:22;;;;;;;7.68;7.03;;;;;;;;;;5046171;28;20036;-63
2022/07/18 04:37:48;;;;;;;7.80;7.20;;;;;;;;;;5042858;28;20112;-64
2022/07/18 04:40:15;;;;;;;8.10;7.50;;;;;;;;;;5045418;28;20075;-65
2022/07/18 04:42:41;;;;;;;8.10;7.40;;;;;;;;;;5048986;28;20036;-65
2022/07/18 04:45:07;;;;;;;7.40;6.80;;;;;;;;;;5042976;28;20041;-64
2022/07/18 04:47:33;;;;;;;7.65;7.13;;;;;;;;;;5040219;28;20712;-64
2022/07/18 04:49:59;;;;;;;7.30;6.80;;;;;;;;;;5038716;28;20063;-65
2022/07/18 04:52:25;;;;;;;8.48;7.60;;;;;;;;;;5046525;28;20064;-64
2022/07/18 04:54:50;;;;;;;7.40;6.90;;;;;;;;;;5039940;28;20029;-63
2022/07/18 04:57:17;;;;;;;9.88;7.13;;;;;;;;;;5046290;28;20041;-65
2022/07/18 04:59:44;;;;;;;8.00;7.18;;;;;;;;;;5045657;28;20443;-64
2022/07/18 05:02:11;;;;;;;7.80;7.18;;;;;;;;;;5047407;28;20399;-65
2022/07/18 05:04:38;;;;;;;7.90;7.25;;;;;;;;;;5045467;28;20071;-64
2022/07/18 05:07:04;;;;;;;7.68;7.05;;;;;;;;;;5046314;28;20098;-66
2022/07/18 05:09:30;;;;;;;8.07;7.45;;;;;;;;;;5047562;28;20086;-69
2022/07/18 05:11:56;;;;;;;7.45;6.95;;;;;;;;;;5050364;28;20040;-69
2022/07/18 05:14:22;;;;;;;8.23;7.53;;;;;;;;;;5044797;28;20472;-69
2022/07/18 05:16:48;;;;;;;7.88;7.18;;;;;;;;;;5045647;28;20037;-70
2022/07/18 05:19:17;;;;;;;8.40;7.57;;;;;;;;;;5047161;28;20052;-70
2022/07/18 05:21:43;;;;;;;7.60;6.90;;;;;;;;;;5044718;28;20523;-70
2022/07/18 05:24:09;;;;;;;7.70;7.10;;;;;;;;;;5040599;28;20040;-70
2022/07/18 05:26:34;;;;;;;7.63;7.03;;;;;;;;;;5047419;28;20029;-70
2022/07/18 05:29:00;;;;;;;8.43;7.45;;;;;;;;;;5045550;28;20386;-69
2022/07/18 05:31:25;;;;;;;8.50;7.70;;;;;;;;;;5046415;28;20033;-69
2022/07/18 05:33:51;;;;;;;7.55;6.95;;;;;;;;;;5045328;28;20112;-71
2022/07/18 05:36:17;;;;;;;8.20;7.40;;;;;;;;;;5043063;28;20128;-69
2022/07/18 05:38:42;;;;;;;7.45;6.93;;;;;;;;;;5045118;28;20044;-70
2022/07/18 05:41:08;;;;;;;7.97;7.10;;;;;;;;;;5042823;28;20029;-68
2022/07/18 05:43:34;;;;;;;7.95;7.35;;;;;;;;;;5046148;28;20044;-69
2022/07/18 05:46:00;;;;;;;7.45;6.70;;;;;;;;;;5045974;28;20108;-69
2022/07/18 05:48:26;;;;;;;7.47;6.90;;;;;;;;;;5047014;28;20033;-69
2022/07/18 05:50:51;;;;;;;8.00;7.30;;;;;;;;;;5043170;28;20075;-69
2022/07/18 05:53:17;;;;;;;7.55;6.95;;;;;;;;;;5045845;28;20032;-69
2022/07/18 05:55:42;;;;;;;7.60;7.10;;;;;;;;;;5043165;28;20051;-69
2022/07/18 05:58:08;;;;;;;7.80;7.13;;;;;;;;;;5045619;28;20180;-69
2022/07/18 06:00:34;;;;;;;8.38;7.05;;;;;;;;;;5042955;28;20052;-69
2022/07/18 06:03:00;;;;;;;7.63;7.00;;;;;;;;;;5045275;28;20040;-68
2022/07/18 06:05:26;;;;;;;7.70;7.10;;;;;;;;;;5045841;28;20095;-69
2022/07/18 06:07:56;;;;;;;7.90;7.20;;;;;;;;;;5042191;28;20083;-69
2022/07/18 06:10:22;;;;;;;8.40;7.55;;;;;;;;;;5047170;28;20464;-69
2022/07/18 06:12:49;;;;;;;7.63;6.88;;;;;;;;;;5048101;28;20404;-69
2022/07/18 06:15:15;;;;;;;7.60;6.90;;;;;;;;;;5044494;28;20033;-69
2022/07/18 06:17:42;;;;;;;7.70;7.10;;;;;;;;;;5044369;28;20619;-69
2022/07/18 06:20:08;;;;;;;9.70;7.22;;;;;;;;;;5046689;28;20037;-69
2022/07/18 06:22:34;;;;;;;7.68;7.07;;;;;;;;;;5042840;28;20041;-69
2022/07/18 06:25:01;;;;;;;7.10;6.60;;;;;;;;;;5041303;28;20029;-69
2022/07/18 06:27:26;;;;;;;7.57;6.97;;;;;;;;;;5045700;28;20029;-69
2022/07/18 06:29:52;;;;;;;7.55;6.65;;;;;;;;;;5047896;28;20035;-70
2022/07/18 06:32:18;;;;;;;7.28;6.57;;;;;;;;;;5043933;28;20028;-69
2022/07/18 06:34:43;;;;;;;8.20;6.93;;;;;;;;;;5046455;28;20038;-69
2022/07/18 06:37:09;;;;;;;6.97;6.45;;;;;;;;;;5041155;28;20052;-69
2022/07/18 06:39:34;;;;;;;7.15;6.45;;;;;;;;;;5045474;28;20047;-69
2022/07/18 06:42:00;;;;;;;7.65;6.35;;;;;;;;;;5041763;28;20382;-69
2022/07/18 06:44:26;;;;;;;7.00;6.50;;;;;;;;;;5046081;28;20033;-69
2022/07/18 06:46:54;;;;;;;6.75;6.25;;;;;;;;;;5043431;28;20051;-69
2022/07/18 06:49:20;;;;;;;7.07;6.47;;;;;;;;;;5026979;28;20037;-69
2022/07/18 06:51:46;;;;;;;7.38;6.80;;;;;;;;;;5043731;28;20029;-69
2022/07/18 06:54:11;;;;;;;6.70;6.20;;;;;;;;;;5044083;28;20045;-70
2022/07/18 06:56:37;;;;;;;6.90;6.35;;;;;;;;;;5044632;28;20045;-68
2022/07/18 06:59:03;;;;;;;7.10;6.40;;;;;;;;;;5045215;28;20408;-69
2022/07/18 07:01:28;;;;;;;7.25;6.72;;;;;;;;;;5044503;28;20096;-70
2022/07/18 07:03:54;;;;;;;7.28;6.57;;;;;;;;;;5044439;28;20627;-70
2022/07/18 07:06:19;;;;;;;6.95;6.35;;;;;;;;;;5052025;28;20041;-69
2022/07/18 07:08:45;;;;;;;6.65;6.00;;;;;;;;;;5041904;28;20036;-70
2022/07/18 07:11:11;;;;;;;7.70;6.03;;;;;;;;;;5049552;28;20037;-69
2022/07/18 07:13:36;;;;;;;7.38;6.50;;;;;;;;;;5044879;28;20033;-70
2022/07/18 07:16:02;;;;;;;6.70;6.20;;;;;;;;;;5049673;28;20037;-69
2022/07/18 07:18:28;;;;;;;6.38;5.80;;;;;;;;;;5048420;28;20096;-69
2022/07/18 07:20:54;;;;;;;6.15;5.60;;;;;;;;;;5049939;28;20036;-70
2022/07/18 07:23:19;;;;;;;6.85;5.75;;;;;;;;;;5047703;28;20455;-70
2022/07/18 07:25:45;;;;;;;6.70;6.10;;;;;;;;;;5048316;28;20468;-70
2022/07/18 07:28:10;;;;;;;6.47;5.90;;;;;;;;;;5047051;28;20037;-69
2022/07/18 07:30:36;;;;;;;5.95;5.45;;;;;;;;;;5049175;28;20507;-70
2022/07/18 07:33:02;;;;;;;6.07;5.65;;;;;;;;;;5045700;28;20028;-69
2022/07/18 07:35:28;;;;;;;7.15;5.47;;;;;;;;;;5047086;28;20115;-69
2022/07/18 07:37:58;;;;;;;5.85;5.45;;;;;;;;;;5049051;28;20124;-69
2022/07/18 07:40:28;;;;;;;7.18;5.63;;;;;;;;;;5044123;28;20162;-69
2022/07/18 07:43:09;;;;;;;6.75;6.15;;;;;;;;;;5046926;28;20079;-69
2022/07/18 07:45:35;;;;;;;6.10;5.38;;;;;;;;;;5044135;28;20045;-70
2022/07/18 07:48:01;;;;;;;6.75;5.63;;;;;;;;;;5047093;28;20040;-69
2022/07/18 07:50:26;;;;;;;6.85;5.40;;;;;;;;;;5046928;28;20033;-69
2022/07/18 07:52:52;;;;;;;8.07;5.72;;;;;;;;;;5049245;28;20446;-69
2022/07/18 07:55:18;;;;;;;8.27;5.80;;;;;;;;;;5045411;28;20029;-69
2022/07/18 07:57:43;;;;;;;7.85;5.45;;;;;;;;;;5048913;28;20032;-69
2022/07/18 08:00:09;;;;;;;6.10;5.53;;;;;;;;;;5045166;28;20039;-70
2022/07/18 08:02:50;;;;;;;8.02;5.63;;;;;;;;;;5047242;28;20033;-69
2022/07/18 08:05:16;;;;;;;7.95;5.63;;;;;;;;;;5045613;28;20446;-70
2022/07/18 08:07:42;;;;;;;6.15;5.63;;;;;;;;;;5048828;28;20033;-69
2022/07/18 08:10:08;;;;;;;7.78;5.30;;;;;;;;;;5047184;28;20036;-69
2022/07/18 08:12:33;;;;;;;5.78;5.32;;;;;;;;;;5048354;28;20071;-70
2022/07/18 08:14:59;;;;;;;6.18;5.60;;;;;;;;;;5046746;28;20033;-69
2022/07/18 08:17:24;;;;;;;10.38;5.60;;;;;;;;;;5041825;28;20025;-70
2022/07/18 08:19:50;;;;;;;9.13;5.45;;;;;;;;;;5048781;28;20187;-69
2022/07/18 08:22:15;;;;;;;6.40;5.25;;;;;;;;;;5044512;28;20166;-70
2022/07/18 08:24:41;;;;;;;5.90;5.40;;;;;;;;;;5037725;28;20033;-70
2022/07/18 08:27:07;;;;;;;7.32;5.20;;;;;;;;;;5044423;28;20099;-70
2022/07/18 08:29:32;;;;;;;6.57;5.28;;;;;;;;;;5050667;28;20037;-70
2022/07/18 08:31:58;;;;;;;10.40;5.53;;;;;;;;;;5045273;28;20033;-70
2022/07/18 08:34:23;;;;;;;5.57;5.10;;;;;;;;;;5038975;28;20722;-70
2022/07/18 08:36:49;;;;;;;6.07;5.53;;;;;;;;;;5044121;28;20039;-70
2022/07/18 08:39:14;;;;;;;6.00;5.50;;;;;;;;;;5047832;28;20021;-69
2022/07/18 08:41:44;;;;;;;6.03;5.45;;;;;;;;;;5042176;28;20123;-69
2022/07/18 08:44:11;;;;;;;6.53;5.20;;;;;;;;;;5046871;28;20032;-69
2022/07/18 08:46:39;;;;;;;5.88;5.38;;;;;;;;;;5045199;28;20033;-69
2022/07/18 08:49:07;;;;;;;5.75;5.25;;;;;;;;;;5048157;28;20082;-69
2022/07/18 08:51:34;;;;;;;6.10;5.45;;;;;;;;;;5044604;28;20052;-70
2022/07/18 08:54:02;;;;;;;6.50;5.20;;;;;;;;;;5047343;28;20503;-69
2022/07/18 08:56:28;;;;;;;6.38;5.07;;;;;;;;;;5043385;28;20037;-70
2022/07/18 08:58:53;;;;;;;6.00;5.53;;;;;;;;;;5042967;28;20419;-70
2022/07/18 09:01:19;;;;;;;7.95;5.32;;;;;;;;;;5047295;28;20037;-70
2022/07/18 09:04:14;;;;;;;6.35;5.65;;;;;;;;;;5041022;28;20106;-70
2022/07/18 09:06:42;;;;;;;5.63;5.15;;;;;;;;;;5048657;28;20037;-70
2022/07/18 09:09:07;;;;;;;5.40;4.90;;;;;;;;;;5042571;28;20064;-70
2022/07/18 09:11:33;;;;;;;5.60;5.20;;;;;;;;;;5047250;28;20028;-70
2022/07/18 09:13:59;;;;;;;5.72;5.20;;;;;;;;;;5042999;28;20097;-70
2022/07/18 09:16:24;;;;;;;5.30;4.80;;;;;;;;;;5044118;28;20507;-70
2022/07/18 09:18:50;;;;;;;8.88;5.15;;;;;;;;;;5040047;28;20037;-70
2022/07/18 09:21:18;;;;;;;5.00;4.60;;;;;;;;;;5047411;28;20162;-70
2022/07/18 09:23:50;;;;;;;7.55;5.03;;;;;;;;;;5040064;28;20508;-70
2022/07/18 09:26:37;;;;;;;5.40;4.72;;;;;;;;;;5041794;28;20037;-70
2022/07/18 09:29:03;;;;;;;6.40;4.60;;;;;;;;;;5044419;28;20049;-70
2022/07/18 09:31:29;;;;;;;5.20;4.65;;;;;;;;;;5039249;28;20330;-70
2022/07/18 09:33:59;;;;;;;6.82;4.90;;;;;;;;;;5040821;28;20033;-70
2022/07/18 09:36:26;;;;;;;4.90;4.60;;;;;;;;;;5041044;28;20040;-70
2022/07/18 09:38:52;;;;;;;4.82;4.30;;;;;;;;;;5045765;28;20040;-70
2022/07/18 09:41:32;;;;;;;4.80;4.20;;;;;;;;;;5037748;28;20032;-70
2022/07/18 09:43:58;;;;;;;4.72;4.32;;;;;;;;;;5045293;28;20044;-70
2022/07/18 09:46:23;;;;;;;4.28;3.97;;;;;;;;;;5042076;28;20033;-70
2022/07/18 09:49:08;;;;;;;4.68;4.25;;;;;;;;;;5042574;28;20041;-70
2022/07/18 09:51:34;;;;;;;6.38;4.20;;;;;;;;;;5043888;28;20127;-70
2022/07/18 09:54:01;;;;;;;4.57;4.03;;;;;;;;;;5042141;28;20532;-70
2022/07/18 09:56:29;;;;;;;5.82;4.57;;;;;;;;;;5043195;28;20115;-70
2022/07/18 09:58:56;;;;;;;4.78;4.43;;;;;;;;;;5038181;28;20138;-70
2022/07/18 10:01:23;;;;;;;4.78;4.38;;;;;;;;;;5044443;28;20424;-70
2022/07/18 10:03:49;;;;;;;4.60;4.20;;;;;;;;;;5040161;28;20041;-70
2022/07/18 10:06:16;;;;;;;4.85;4.45;;;;;;;;;;5044529;28;20037;-70
2022/07/18 10:08:42;;;;;;;4.93;4.53;;;;;;;;;;5033324;28;20090;-70
2022/07/18 10:11:08;;;;;;;4.88;4.47;;;;;;;;;;5042009;28;20029;-71
2022/07/18 10:13:35;;;;;;;4.78;4.47;;;;;;;;;;5040439;28;20044;-70
2022/07/18 10:16:02;;;;;;;4.88;4.57;;;;;;;;;;5041829;28;20516;-70
2022/07/18 10:18:29;;;;;;;5.25;4.55;;;;;;;;;;5043896;28;20028;-70
2022/07/18 10:21:09;;;;;;;4.60;4.30;;;;;;;;;;5042982;28;20034;-70
2022/07/18 10:23:38;;;;;;;5.10;4.70;;;;;;;;;;5039514;28;20064;-70
2022/07/18 10:26:27;;;;;;;4.68;4.38;;;;;;;;;;5040980;28;20041;-71
2022/07/18 10:28:56;;;;;;;4.47;4.18;;;;;;;;;;5030431;28;20049;-70
2022/07/18 10:31:25;;;;;;;4.63;4.22;;;;;;;;;;5036736;28;20076;-70
2022/07/18 10:33:52;;;;;;;4.80;4.50;;;;;;;;;;5040874;28;20040;-70
2022/07/18 10:36:20;;;;;;;5.07;4.70;;;;;;;;;;5038267;28;20028;-70
2022/07/18 10:39:20;;;;;;;6.43;5.00;;;;;;;;;;5045406;28;20021;-70
2022/07/18 10:41:45;;;;;;;5.03;4.63;;;;;;;;;;5042818;28;20033;-70
2022/07/18 10:44:35;;;;;;;4.90;4.60;;;;;;;;;;5046612;28;20037;-71
2022/07/18 10:47:05;;;;;;;4.90;4.60;;;;;;;;;;5040122;28;20144;-68
2022/07/18 10:49:59;;;;;;;4.97;4.57;;;;;;;;;;5043359;28;20190;-69
2022/07/18 10:52:25;;;;;;;4.75;4.35;;;;;;;;;;5049434;28;20115;-71
2022/07/18 10:55:06;;;;;;;4.72;4.38;;;;;;;;;;5044768;28;20067;-71
2022/07/18 10:57:41;;;;;;;4.88;4.55;;;;;;;;;;5046411;28;20043;-70
2022/07/18 11:00:11;;;;;;;8.70;4.97;;;;;;;;;;5047803;28;20045;-71
2022/07/18 11:02:41;;;;;;;5.15;4.75;;;;;;;;;;5046044;28;20181;-69
2022/07/18 11:05:25;;;;;;;7.25;4.60;;;;;;;;;;5042043;28;20041;-69
2022/07/18 11:08:12;;;;;;;4.82;4.53;;;;;;;;;;5042050;28;20133;-69
2022/07/18 11:10:41;;;;;;;5.10;4.68;;;;;;;;;;5031108;28;20047;-69
2022/07/18 11:13:28;;;;;;;5.07;4.70;;;;;;;;;;5044817;28;20069;-69
2022/07/18 11:16:14;;;;;;;5.40;4.90;;;;;;;;;;5043555;28;20041;-69
2022/07/18 11:18:40;;;;;;;6.75;4.70;;;;;;;;;;5041775;28;20044;-68
2022/07/18 11:21:21;;;;;;;4.60;4.30;;;;;;;;;;5045505;28;20088;-69
2022/07/18 11:23:49;;;;;;;5.60;4.75;;;;;;;;;;5050204;28;20079;-68
2022/07/18 11:26:20;;;;;;;7.15;4.65;;;;;;;;;;5041604;28;20037;-69
2022/07/18 11:28:48;;;;;;;4.95;4.60;;;;;;;;;;5048556;28;20040;-69
2022/07/18 11:31:15;;;;;;;;;;;;;;;;;;5046294;28;20041;-69
2022/07/18 11:33:47;;;;;;;5.38;4.97;;;;;;;;;;5048692;28;19917;-69
2022/07/18 11:36:17;;;;;;;5.30;4.80;;;;;;;;;;5047260;28;20280;-69
2022/07/18 11:38:48;;;;;;;4.90;4.60;;;;;;;;;;5047585;28;20033;-69
2022/07/18 11:41:14;;;;;;;5.03;4.72;;;;;;;;;;5041808;28;20483;-69
2022/07/18 11:43:40;;;;;;;5.05;4.60;;;;;;;;;;5045453;28;20037;-69
2022/07/18 11:46:09;;;;;;;6.53;5.03;;;;;;;;;;5045263;28;20041;-69
2022/07/18 11:48:36;;;;;;;6.15;5.15;;;;;;;;;;5045332;28;20072;-70
2022/07/18 11:51:08;;;;;;;5.47;4.90;;;;;;;;;;5040359;28;20123;-69
2022/07/18 11:53:33;;;;;;;5.00;4.70;;;;;;;;;;5046331;28;20025;-69
2022/07/18 11:56:04;;;;;;;5.63;5.13;;;;;;;;;;5045826;28;20075;-69
2022/07/18 11:58:35;;;;;;;6.72;4.95;;;;;;;;;;5045674;28;20033;-69
2022/07/18 12:01:01;;;;;;;5.68;5.15;;;;;;;;;;5044476;28;20036;-69
2022/07/18 12:03:27;;;;;;;5.45;4.95;;;;;;;;;;5045136;28;20036;-69
2022/07/18 12:05:53;;;;;;;6.13;5.07;;;;;;;;;;5043297;28;20327;-70
2022/07/18 12:08:26;;;;;;;5.70;5.30;;;;;;;;;;5041158;28;20508;-69
2022/07/18 12:11:07;;;;;;;5.40;5.00;;;;;;;;;;5042722;28;20568;-70
2022/07/18 12:13:43;;;;;;;5.78;5.25;;;;;;;;;;5039144;28;20040;-70
2022/07/18 12:16:32;;;;;;;5.75;5.07;;;;;;;;;;5044840;28;20052;-69
2022/07/18 12:19:12;;;;;;;7.68;5.45;;;;;;;;;;5037950;28;20048;-69
2022/07/18 12:21:55;;;;;;;5.90;5.40;;;;;;;;;;5043058;28;20291;-70
2022/07/18 12:24:53;;;;;;;6.20;5.65;;;;;;;;;;5043572;28;20047;-69
2022/07/18 12:27:19;;;;;;;;;;;;;;;;;;5038388;28;20032;-70
2022/07/18 12:30:04;;;;;;;6.13;5.50;;;;;;;;;;5044287;28;19925;-69
2022/07/18 12:32:30;;;;;;;6.03;5.53;;;;;;;;;;5048111;28;20125;-69
2022/07/18 12:34:57;;;;;;;5.70;5.30;;;;;;;;;;5044171;28;20124;-70
2022/07/18 12:37:25;;;;;;;5.80;5.30;;;;;;;;;;5044044;28;20047;-69
2022/07/18 12:39:59;;;;;;;5.25;4.95;;;;;;;;;;5043709;28;20036;-69
2022/07/18 12:42:39;;;;;;;5.88;5.20;;;;;;;;;;5044705;28;20109;-69
2022/07/18 12:45:06;;;;;;;6.32;5.22;;;;;;;;;;5041202;28;20037;-69
2022/07/18 12:47:32;;;;;;;7.50;5.03;;;;;;;;;;5047098;28;20035;-69
2022/07/18 12:49:58;;;;;;;5.78;5.40;;;;;;;;;;5037350;28;20033;-69
2022/07/18 12:52:23;;;;;;;5.32;5.03;;;;;;;;;;5045835;28;20074;-70
2022/07/18 12:54:50;;;;;;;5.20;4.80;;;;;;;;;;5039171;28;20441;-69
2022/07/18 12:57:16;;;;;;;5.30;4.80;;;;;;;;;;5045347;28;20511;-69
2022/07/18 12:59:42;;;;;;;5.30;4.90;;;;;;;;;;5042621;28;20055;-69
2022/07/18 13:02:08;;;;;;;7.10;5.15;;;;;;;;;;5043099;28;20038;-70
2022/07/18 13:04:34;;;;;;;5.97;5.20;;;;;;;;;;5043616;28;20488;-69
2022/07/18 13:07:00;;;;;;;5.07;4.70;;;;;;;;;;5045851;28;20407;-69
2022/07/18 13:09:25;;;;;;;6.72;5.10;;;;;;;;;;5042202;28;20068;-69
2022/07/18 13:11:51;;;;;;;5.45;4.95;;;;;;;;;;5040011;28;20038;-70
2022/07/18 13:14:17;;;;;;;5.80;4.85;;;;;;;;;;5040431;28;20043;-69
2022/07/18 13:16:45;;;;;;;5.50;5.00;;;;;;;;;;5041293;28;20037;-69
2022/07/18 13:19:11;;;;;;;5.10;4.70;;;;;;;;;;5043794;28;20411;-69
2022/07/18 13:21:37;;;;;;;5.53;5.13;;;;;;;;;;5043159;28;20409;-69
2022/07/18 13:24:03;;;;;;;5.07;4.70;;;;;;;;;;5045375;28;20491;-69
2022/07/18 13:26:29;;;;;;;5.57;5.18;;;;;;;;;;5039981;28;20491;-69
2022/07/18 13:28:55;;;;;;;5.28;4.80;;;;;;;;;;5041429;28;20040;-69
2022/07/18 13:31:21;;;;;;;5.88;4.80;;;;;;;;;;5042868;28;20434;-69
2022/07/18 13:33:47;;;;;;;5.18;4.78;;;;;;;;;;5043235;28;20326;-69
2022/07/18 13:36:13;;;;;;;4.97;4.70;;;;;;;;;;5031819;28;20045;-69
2022/07/18 13:38:39;;;;;;;5.70;5.30;;;;;;;;;;5044846;28;20036;-69
2022/07/18 13:41:04;;;;;;;5.00;4.60;;;;;;;;;;5040793;28;20110;-69
2022/07/18 13:43:30;;;;;;;5.40;5.00;;;;;;;;;;5043862;28;20043;-69
2022/07/18 13:45:56;;;;;;;5.00;4.60;;;;;;;;;;5036727;28;20041;-69
2022/07/18 13:48:21;;;;;;;5.50;4.78;;;;;;;;;;5045305;28;20037;-69
2022/07/18 13:50:47;;;;;;;5.20;4.70;;;;;;;;;;5040655;28;20037;-69
2022/07/18 13:53:12;;;;;;;4.97;4.68;;;;;;;;;;5044810;28;20466;-69
2022/07/18 13:55:38;;;;;;;5.10;4.70;;;;;;;;;;5042290;28;20037;-69
2022/07/18 13:58:03;;;;;;;4.90;4.60;;;;;;;;;;5042258;28;20099;-69
2022/07/18 14:00:29;;;;;;;5.20;4.72;;;;;;;;;;5039618;28;20103;-69
2022/07/18 14:02:55;;;;;;;5.10;4.70;;;;;;;;;;5040262;28;20046;-69
2022/07/18 14:05:21;;;;;;;5.53;5.13;;;;;;;;;;5044679;28;20070;-69
2022/07/18 14:07:47;;;;;;;6.18;5.10;;;;;;;;;;5039268;28;20033;-69
2022/07/18 14:10:15;;;;;;;5.32;4.93;;;;;;;;;;5045270;28;20108;-69
2022/07/18 14:12:41;;;;;;;5.13;4.70;;;;;;;;;;5042267;28;20030;-70
2022/07/18 14:15:08;;;;;;;5.63;5.05;;;;;;;;;;5048235;28;20201;-69
2022/07/18 14:17:34;;;;;;;4.85;4.55;;;;;;;;;;5047672;28;20518;-69
2022/07/18 14:20:00;;;;;;;5.00;4.60;;;;;;;;;;5045212;28;20045;-69
2022/07/18 14:22:26;;;;;;;5.43;5.00;;;;;;;;;;5043347;28;20481;-69
2022/07/18 14:24:51;;;;;;;5.30;4.90;;;;;;;;;;5049095;28;20234;-69
2022/07/18 14:27:17;;;;;;;4.95;4.55;;;;;;;;;;5042594;28;20186;-69
2022/07/18 14:29:43;;;;;;;5.22;4.53;;;;;;;;;;5048637;28;20029;-69
2022/07/18 14:32:08;;;;;;;5.00;4.70;;;;;;;;;;5045808;28;20035;-69
2022/07/18 14:34:34;;;;;;;5.25;4.85;;;;;;;;;;5045602;28;20658;-69
2022/07/18 14:37:00;;;;;;;5.40;5.00;;;;;;;;;;5045110;28;20036;-69
2022/07/18 14:39:26;;;;;;;4.80;4.53;;;;;;;;;;5047833;28;20035;-69
2022/07/18 14:41:52;;;;;;;5.75;5.25;;;;;;;;;;5046547;28;20064;-69
2022/07/18 14:44:17;;;;;;;5.97;5.47;;;;;;;;;;5044214;28;22006;-69
2022/07/18 14:46:43;;;;;;;5.53;5.03;;;;;;;;;;5047984;28;20037;-69
2022/07/18 14:49:08;;;;;;;6.78;5.15;;;;;;;;;;5044263;28;20043;-69